Time;durP1;ratioP1;P1;durP2;ratioP2;P2;SDS_P1;SDS_P2;PMS_P1;PMS_P2;Temp;Humidity;BMP_temperature;BMP_pressure;BME280_temperature;BME280_humidity;BME280_pressure;Samples;Min_cycle;Max_cycle;Signal;HPM_P1;HPM_P2
2023/01/26 00:01:58;;;;;;;30.93;17.17;;;0.60;91.40;;;0.07;83.79;98549.06;5084194;28;20499;-74
2023/01/26 00:04:25;;;;;;;33.33;17.70;;;0.60;92.10;;;0.06;83.99;98538.53;5085195;28;20440;-74
2023/01/26 00:06:53;;;;;;;33.57;18.40;;;0.50;92.10;;;-0.23;84.93;98531.31;5083051;28;20451;-73
2023/01/26 00:09:20;;;;;;;37.70;18.67;;;0.50;92.00;;;-0.40;85.91;98532.78;5078960;28;20824;-74
2023/01/26 00:11:48;;;;;;;36.87;20.63;;;0.40;92.40;;;-0.37;86.27;98525.41;5074399;28;20508;-73
2023/01/26 00:14:16;;;;;;;35.20;20.03;;;0.30;93.50;;;-0.27;85.58;98524.59;5075360;28;20540;-74
2023/01/26 00:16:43;;;;;;;36.37;20.93;;;0.40;93.20;;;-0.27;85.54;98527.25;5073375;28;20444;-73
2023/01/26 00:19:10;;;;;;;37.80;19.40;;;0.40;93.00;;;-0.30;85.89;98517.75;5084959;28;20483;-74
2023/01/26 00:21:37;;;;;;;39.27;19.83;;;0.40;93.20;;;-0.34;86.08;98517.19;5074445;28;20451;-74
2023/01/26 00:24:05;;;;;;;40.30;21.07;;;0.30;93.40;;;-0.05;85.13;98513.78;5081126;28;20543;-73
2023/01/26 00:26:33;;;;;;;35.13;18.80;;;0.40;93.80;;;-0.25;85.51;98506.72;5079746;28;20448;-73
2023/01/26 00:29:01;;;;;;;35.60;19.20;;;0.40;92.60;;;-0.35;85.75;98501.38;5082845;28;20611;-72
2023/01/26 00:31:29;;;;;;;37.97;21.10;;;0.40;92.70;;;-0.16;85.72;98504.06;5078565;28;20473;-73
2023/01/26 00:33:57;;;;;;;34.30;19.00;;;0.40;93.50;;;-0.10;85.67;98489.41;5086892;28;20553;-72
2023/01/26 00:36:26;;;;;;;32.50;20.40;;;0.40;93.80;;;0.07;84.40;98477.31;5085581;28;20450;-73
2023/01/26 00:38:53;;;;;;;32.77;17.43;;;0.50;93.40;;;0.07;84.60;98460.50;5082293;28;21019;-73
2023/01/26 00:44:07;;;;;;;35.47;19.60;;;0.60;92.50;;;0.03;84.17;98469.75;5084022;28;20540;-75
2023/01/26 00:46:34;;;;;;;32.83;18.80;;;0.50;91.80;;;0.05;84.57;98470.44;5076802;28;20554;-72
2023/01/26 00:49:02;;;;;;;34.93;20.20;;;0.50;92.50;;;0.11;84.31;98457.44;5083520;28;20454;-74
2023/01/26 00:51:29;;;;;;;42.20;18.70;;;0.60;92.80;;;-0.07;85.19;98459.94;5101012;28;20470;-73
2023/01/26 00:53:56;;;;;;;37.07;19.60;;;0.50;93.10;;;-0.15;85.07;98475.72;5086320;28;20448;-72
2023/01/26 00:56:26;;;;;;;32.53;17.90;;;0.50;92.80;;;-0.28;85.75;98457.38;5084106;28;21231;-73
2023/01/26 00:58:53;;;;;;;31.77;18.00;;;0.40;93.20;;;-0.08;84.97;98458.25;5082739;28;20488;-72
2023/01/26 01:01:22;;;;;;;34.90;19.70;;;0.50;93.10;;;-0.19;85.23;98442.44;5072512;28;20457;-73
2023/01/26 01:03:50;;;;;;;30.97;18.27;;;0.50;92.20;;;-0.21;85.56;98441.75;5086311;28;20546;-72
2023/01/26 01:06:18;;;;;;;35.40;18.83;;;0.50;92.70;;;-0.54;86.83;98430.44;5074790;28;20443;-73
2023/01/26 01:08:45;;;;;;;33.40;17.73;;;0.40;93.40;;;-0.37;87.47;98434.28;5081132;28;20722;-74
2023/01/26 01:11:12;;;;;;;32.93;18.57;;;0.30;95.30;;;-0.19;86.46;98426.50;5097118;28;20494;-73
2023/01/26 01:13:40;;;;;;;33.73;17.63;;;0.40;94.80;;;-0.10;85.60;98438.94;5082111;28;20479;-73
2023/01/26 01:16:10;;;;;;;31.87;18.67;;;0.50;94.20;;;0.09;85.53;98426.69;5087584;28;20459;-72
2023/01/26 01:18:39;;;;;;;34.67;18.50;;;0.50;94.30;;;-0.09;85.98;98423.88;5086909;28;20443;-73
2023/01/26 01:21:07;;;;;;;35.37;19.33;;;0.50;93.80;;;-0.26;86.39;98428.00;5086178;28;20508;-75
2023/01/26 01:23:35;;;;;;;39.10;21.40;;;0.40;94.10;;;-0.01;85.59;98422.19;5096799;28;20454;-73
2023/01/26 01:26:04;;;;;;;36.23;20.77;;;0.50;94.60;;;-0.15;86.12;98428.75;5071321;28;20486;-74
2023/01/26 01:28:31;;;;;;;38.50;21.53;;;0.50;94.10;;;0.03;85.57;98420.09;5079314;28;20543;-74
2023/01/26 01:30:59;;;;;;;36.47;21.17;;;0.50;94.20;;;0.22;84.77;98421.09;5074310;28;20476;-74
2023/01/26 01:33:26;;;;;;;36.40;19.53;;;0.60;94.10;;;0.39;83.99;98416.91;5080199;28;20463;-73
2023/01/26 01:35:59;;;;;;;41.43;20.97;;;0.70;93.10;;;0.27;84.22;98414.38;5079718;28;20445;-73
2023/01/26 01:38:27;;;;;;;33.10;18.30;;;0.70;92.90;;;0.26;83.89;98412.72;5092117;28;20454;-74
2023/01/26 01:40:56;;;;;;;43.43;22.73;;;0.70;92.50;;;-0.09;85.41;98416.72;5074337;28;20539;-73
2023/01/26 01:43:25;;;;;;;43.77;22.80;;;0.50;92.70;;;-0.08;85.10;98412.25;5078027;28;20493;-74
2023/01/26 01:45:53;;;;;;;48.73;21.97;;;0.40;93.60;;;0.09;85.10;98411.56;5087553;28;20493;-74
2023/01/26 01:48:25;;;;;;;43.10;22.50;;;0.50;94.20;;;-0.02;85.28;98414.34;5075439;28;20470;-73
2023/01/26 01:50:56;;;;;;;41.90;20.80;;;0.50;93.50;;;0.02;85.40;98409.59;5082764;28;20575;-73
2023/01/26 01:53:31;;;;;;;38.57;20.50;;;0.50;93.80;;;0.05;84.79;98409.31;5085565;28;20449;-74
2023/01/26 01:56:02;;;;;;;38.43;21.00;;;0.60;93.20;;;-0.01;85.25;98406.25;5098878;28;20444;-74
2023/01/26 01:58:33;;;;;;;43.77;22.40;;;0.50;93.20;;;0.17;85.04;98402.91;5075497;28;20483;-73
2023/01/26 02:01:00;;;;;;;43.70;22.13;;;0.60;93.60;;;0.06;85.33;98411.84;5073799;28;20463;-73
2023/01/26 02:03:29;;;;;;;48.50;22.93;;;0.60;93.70;;;-0.14;86.11;98400.38;5080225;28;20523;-73
2023/01/26 02:06:01;;;;;;;48.17;22.40;;;0.50;93.50;;;-0.17;85.88;98412.09;5075737;28;20475;-73
2023/01/26 02:08:34;;;;;;;41.50;21.53;;;0.40;93.20;;;-0.01;85.68;98395.63;5085993;28;21261;-72
2023/01/26 02:11:08;;;;;;;41.07;22.43;;;0.50;93.80;;;-0.07;85.52;98380.25;5074122;28;20560;-73
2023/01/26 02:13:37;;;;;;;39.27;21.53;;;0.50;94.00;;;0.15;85.71;98391.56;5085314;28;20462;-73
2023/01/26 02:16:05;;;;;;;35.00;20.40;;;0.50;95.10;;;-0.07;85.52;98390.88;5093534;28;20456;-74
2023/01/26 02:18:32;;;;;;;42.07;22.37;;;0.50;94.20;;;0.01;85.65;98381.34;5106318;28;20450;-72
2023/01/26 02:21:03;;;;;;;47.23;21.67;;;0.50;94.80;;;0.15;85.25;98399.56;5107825;28;20456;-72
2023/01/26 02:23:45;;;;;;;41.83;20.63;;;0.60;94.30;;;0.07;84.80;98397.59;5104657;28;20428;-73
2023/01/26 02:26:16;;;;;;;36.33;18.93;;;0.60;93.50;;;-0.21;86.26;98396.59;5085350;28;20943;-74
2023/01/26 02:28:44;;;;;;;43.23;21.63;;;0.50;93.70;;;-0.28;87.09;98393.63;5088743;28;21080;-73
2023/01/26 02:31:13;;;;;;;47.30;22.53;;;0.30;94.70;;;-0.23;86.75;98395.84;5079643;28;20507;-72
2023/01/26 02:33:41;;;;;;;40.23;21.27;;;0.30;95.10;;;-0.53;87.05;98376.38;5074823;28;20506;-72
2023/01/26 02:36:18;;;;;;;41.80;22.30;;;0.20;95.10;;;-0.34;87.56;98389.72;5067432;28;20539;-72
2023/01/26 02:38:59;;;;;;;40.40;21.83;;;0.20;95.90;;;-0.21;86.71;98378.81;5085346;28;20457;-74
2023/01/26 02:44:11;;;;;;;40.50;21.13;;;0.30;96.00;;;-0.59;86.49;98308.75;5093180;28;20863;-73
2023/01/26 02:46:38;;;;;;;45.17;22.07;;;0.30;95.60;;;-0.25;87.06;98376.56;5079885;28;20803;-72
2023/01/26 02:51:50;;;;;;;41.10;21.47;;;0.30;96.10;;;-0.27;86.63;98367.91;5075753;28;20486;-73
2023/01/26 02:56:59;;;;;;;44.13;21.97;;;0.30;95.00;;;-0.26;86.53;98353.66;5085359;28;20474;-73
2023/01/26 02:59:27;;;;;;;44.90;23.10;;;0.30;95.10;;;-0.32;87.46;98349.72;5083683;28;20635;-73
2023/01/26 03:01:57;;;;;;;43.90;21.73;;;0.30;96.00;;;-0.08;86.78;98362.59;5080157;28;20507;-72
2023/01/26 03:04:24;;;;;;;46.77;23.53;;;0.30;96.40;;;-0.20;86.55;98359.25;5077142;28;20951;-74
2023/01/26 03:06:51;;;;;;;39.20;21.53;;;0.40;95.70;;;-0.10;86.94;98359.25;5098173;28;20466;-73
2023/01/26 03:09:18;;;;;;;48.13;23.33;;;0.40;96.20;;;0.03;86.38;98352.81;5081978;28;21096;-72
2023/01/26 03:11:45;;;;;;;47.13;22.73;;;0.40;95.80;;;-0.04;86.30;98356.06;5077678;28;20505;-73
2023/01/26 03:14:15;;;;;;;51.40;24.07;;;0.40;95.50;;;-0.26;86.99;98348.34;5075495;28;20870;-72
2023/01/26 03:16:42;;;;;;;45.20;23.40;;;0.30;95.20;;;-0.22;86.97;98347.09;5091040;27;20495;-73
2023/01/26 03:27:29;;;;;;;43.17;21.03;;;0.40;93.20;;;-0.15;86.78;98341.09;5078511;28;20442;-74
2023/01/26 03:29:59;;;;;;;45.47;21.20;;;0.30;94.90;;;-0.44;87.12;98325.13;5075759;28;20863;-72
2023/01/26 03:32:26;;;;;;;43.53;21.37;;;0.20;95.40;;;-0.61;87.69;98351.34;5073459;28;20910;-75
2023/01/26 03:34:53;;;;;;;45.37;22.07;;;0.10;95.50;;;-0.39;88.21;98344.13;5077705;28;20471;-72
2023/01/26 03:37:21;;;;;;;43.47;22.00;;;0.10;97.50;;;-0.39;87.54;98338.00;5078462;28;20499;-75
2023/01/26 03:56:26;;;;;;;43.50;21.93;;;-0.10;99.90;;;-0.31;87.92;98324.84;5082078;28;20454;-73
2023/01/26 03:58:54;;;;;;;43.70;19.30;;;0.10;99.90;;;-0.59;88.10;98328.16;5083871;28;20451;-72
2023/01/26 04:01:26;;;;;;;50.40;20.93;;;0.10;98.80;;;-0.76;89.59;98334.13;5075642;28;20446;-74
2023/01/26 04:09:28;;;;;;;42.00;18.97;;;0.00;99.90;;;-0.35;87.12;98329.63;5073015;28;20457;-74
2023/01/26 04:11:56;;;;;;;42.37;20.20;;;0.20;99.50;;;-0.49;88.30;98322.88;5092040;28;20486;-75
2023/01/26 04:22:43;;;;;;;37.13;19.70;;;0.20;98.30;;;-0.38;87.61;98319.28;5083487;28;20474;-73
2023/01/26 04:25:15;;;;;;;43.90;19.50;;;0.30;97.50;;;-0.26;87.25;98312.00;5086115;28;20463;-73
2023/01/26 04:27:44;;;;;;;38.30;18.53;;;0.30;97.50;;;-0.31;86.82;98309.75;5077587;28;20454;-72
2023/01/26 04:30:15;;;;;;;46.03;19.57;;;0.30;96.60;;;-0.73;87.42;98278.13;5084532;28;20456;-73
2023/01/26 04:32:44;;;;;;;38.30;19.60;;;0.20;96.00;;;-0.64;88.10;98322.44;5077553;28;20548;-75
2023/01/26 04:35:13;;;;;;;38.27;19.20;;;0.00;96.60;;;-1.15;88.54;98268.53;5078249;28;20527;-73
2023/01/26 04:37:40;;;;;;;43.10;21.50;;;0.00;97.20;;;-0.95;89.84;98321.63;5086092;28;20448;-71
2023/01/26 04:40:09;;;;;;;44.07;20.60;;;-0.20;98.00;;;-0.86;89.63;98326.97;5072191;28;20460;-73
2023/01/26 04:42:37;;;;;;;40.60;19.73;;;-0.20;99.40;;;-0.86;89.85;98326.97;5076181;28;20446;-73
2023/01/26 04:45:05;;;;;;;41.50;20.47;;;-0.20;99.90;;;-0.82;90.04;98332.03;5084218;28;20482;-72
2023/01/26 04:47:32;;;;;;;36.80;19.50;;;-0.20;99.90;;;-0.59;89.53;98322.03;5073520;28;20523;-73
2023/01/26 04:50:01;;;;;;;39.93;19.20;;;-0.10;99.90;;;-0.58;88.54;98321.88;5059536;28;20473;-71
2023/01/26 04:52:28;;;;;;;41.67;21.63;;;0.00;99.90;;;-0.67;88.29;98335.13;5081744;28;20495;-72
2023/01/26 04:54:55;;;;;;;30.80;17.77;;;0.00;98.70;;;-0.66;87.93;98316.44;5080157;28;21091;-70
2023/01/26 04:57:23;;;;;;;44.10;20.67;;;0.00;97.70;;;-0.75;88.72;98322.53;5081983;28;20489;-72
2023/01/26 04:59:50;;;;;;;32.03;18.50;;;-0.10;98.00;;;-0.67;88.95;98321.88;5085111;28;21001;-73
2023/01/26 05:02:17;;;;;;;36.07;18.50;;;-0.20;99.10;;;-0.64;89.51;98317.13;5074822;28;20539;-73
2023/01/26 05:04:44;;;;;;;38.57;20.17;;;-0.20;99.90;;;-0.61;89.08;98308.88;5080232;28;20852;-73
2023/01/26 05:07:13;;;;;;;39.23;19.53;;;0.00;99.90;;;-0.36;88.30;98308.50;5084193;28;20475;-73
2023/01/26 05:09:40;;;;;;;34.03;18.10;;;0.10;99.90;;;-0.47;88.39;98307.63;5086089;28;20494;-72
2023/01/26 05:14:53;;;;;;;38.43;19.17;;;0.00;97.90;;;-0.31;87.43;98316.88;5099812;28;20549;-72
2023/01/26 05:17:20;;;;;;;37.97;18.97;;;0.10;99.40;;;-0.38;87.40;98319.28;5096002;28;20458;-72
2023/01/26 05:19:47;;;;;;;35.67;19.40;;;0.10;97.20;;;-0.25;87.68;98307.53;5077355;28;20445;-73
2023/01/26 05:22:15;;;;;;;40.87;20.40;;;0.10;98.60;;;-0.45;87.96;98319.00;5086009;28;20954;-73
2023/01/26 05:24:43;;;;;;;35.40;18.07;;;0.10;97.70;;;-0.38;88.40;98324.59;5078986;28;21030;-73
2023/01/26 05:27:22;;;;;;;39.53;19.63;;;0.20;98.60;;;-0.35;87.84;98319.00;5077728;28;20543;-73
2023/01/26 05:29:51;;;;;;;38.27;19.43;;;0.20;97.60;;;-0.35;87.75;98320.78;5081995;28;20445;-71
2023/01/26 05:32:18;;;;;;;35.53;18.90;;;0.20;97.30;;;-0.25;87.11;98323.44;5097266;28;20567;-72
2023/01/26 05:34:46;;;;;;;33.67;16.60;;;0.20;96.70;;;-0.36;87.01;98322.63;5082661;28;20507;-73
2023/01/26 05:37:14;;;;;;;35.93;17.40;;;0.20;96.60;;;-0.77;88.38;98297.97;5083133;28;20459;-73
2023/01/26 05:39:41;;;;;;;34.03;17.03;;;0.00;96.20;;;-0.32;88.01;98326.69;5077240;28;20448;-72
2023/01/26 05:42:09;;;;;;;35.53;17.20;;;0.10;99.10;;;-0.41;87.99;98321.34;5082442;28;20785;-73
2023/01/26 05:44:36;;;;;;;35.70;17.70;;;0.10;98.70;;;-0.21;87.53;98317.72;5082838;28;20450;-76
2023/01/26 05:47:03;;;;;;;28.33;15.77;;;0.30;99.00;;;-0.48;87.60;98324.53;5077940;28;20451;-75
2023/01/26 05:49:30;;;;;;;28.77;15.63;;;0.10;96.70;;;-0.54;88.36;98321.59;5085554;28;20520;-75
2023/01/26 05:51:58;;;;;;;33.63;16.60;;;0.00;96.50;;;-0.67;88.57;98332.47;5086251;28;21095;-75
2023/01/26 05:54:26;;;;;;;36.53;17.87;;;0.00;97.00;;;-0.50;88.08;98325.69;5087686;28;20549;-76
2023/01/26 05:56:54;;;;;;;34.93;16.33;;;0.00;98.50;;;-0.53;88.02;98333.91;5079426;28;20462;-75
2023/01/26 05:59:21;;;;;;;29.73;16.10;;;0.00;97.50;;;-0.65;88.39;98326.06;5076211;28;20475;-76
2023/01/26 06:01:49;;;;;;;28.67;16.07;;;0.00;97.40;;;-0.45;88.72;98326.09;5079003;28;20451;-77
2023/01/26 06:04:16;;;;;;;29.23;15.97;;;0.00;98.30;;;-0.44;87.70;98315.34;5078183;28;20510;-76
2023/01/26 06:06:43;;;;;;;33.23;16.90;;;0.10;98.80;;;-0.54;87.40;98287.94;5079185;28;20458;-79
2023/01/26 06:09:11;;;;;;;27.47;14.97;;;0.10;97.60;;;-0.48;88.70;98329.03;5089108;28;20469;-74
2023/01/26 06:11:39;;;;;;;32.77;15.10;;;0.10;97.60;;;-0.40;88.17;98313.25;5089729;28;21013;-77
2023/01/26 06:14:07;;;;;;;32.20;15.70;;;0.20;98.10;;;-0.31;87.35;98314.22;5097850;28;20431;-79
2023/01/26 06:16:35;;;;;;;32.77;16.00;;;0.20;97.20;;;-0.45;87.44;98324.28;5092495;28;20802;-83
2023/01/26 06:19:03;;;;;;;30.10;15.00;;;0.20;96.40;;;-0.57;88.55;98306.81;5076148;28;20468;-81
2023/01/26 06:21:31;;;;;;;28.20;15.93;;;0.20;97.00;;;-0.74;88.69;98265.84;5079771;28;20530;-78
2023/01/26 06:23:59;;;;;;;29.07;14.87;;;0.20;98.10;;;-0.50;88.04;98310.56;5074601;28;20947;-78
2023/01/26 06:26:26;;;;;;;33.63;15.87;;;0.20;97.20;;;-0.53;88.44;98312.66;5073046;28;20497;-81
2023/01/26 06:28:55;;;;;;;26.50;13.87;;;0.10;96.90;;;-0.66;88.06;98304.97;5084573;28;20942;-81
2023/01/26 06:31:23;;;;;;;29.03;14.93;;;0.10;97.00;;;-0.35;88.65;98326.97;5079985;28;20564;-79
2023/01/26 06:33:50;;;;;;;32.03;16.63;;;0.10;97.90;;;-0.33;87.15;98327.66;5073576;28;20491;-81
2023/01/26 06:36:18;;;;;;;25.80;14.90;;;0.20;97.10;;;-0.36;87.31;98321.78;5085625;28;20787;-82
2023/01/26 06:38:49;;;;;;;27.97;15.40;;;0.20;96.50;;;-0.47;87.60;98309.47;5085116;28;20443;-79
2023/01/26 06:41:17;;;;;;;28.50;14.50;;;0.20;97.00;;;-0.57;87.42;98291.69;5076115;28;20455;-81
2023/01/26 06:43:47;;;;;;;30.10;14.50;;;0.20;96.40;;;-0.37;87.57;98320.94;5103365;28;20538;-75
2023/01/26 06:46:18;;;;;;;30.03;15.43;;;0.20;95.80;;;-0.25;87.44;98329.63;5079415;28;20565;-80
2023/01/26 06:48:46;;;;;;;35.70;17.70;;;0.30;96.10;;;-0.24;86.65;98315.34;5083426;28;20458;-79
2023/01/26 06:51:59;;;;;;;28.10;16.17;;;0.30;95.70;;;-0.30;87.50;98326.56;5085019;28;20451;-81
2023/01/26 06:54:27;;;;;;;27.10;13.33;;;0.20;96.00;;;-0.51;86.80;98305.41;5075562;28;20447;-77
2023/01/26 06:56:54;;;;;;;30.03;14.87;;;0.20;95.70;;;-0.32;86.40;98318.72;5079316;28;20456;-84
2023/01/26 06:59:21;;;;;;;32.70;15.03;;;0.20;94.70;;;-0.36;85.96;98312.00;5076825;28;20463;-79
2023/01/26 07:01:50;;;;;;;22.43;13.40;;;0.20;94.40;;;-0.21;86.67;98308.94;5095240;28;20450;-79
2023/01/26 07:04:17;;;;;;;26.10;13.70;;;0.20;95.00;;;-0.33;85.41;98314.38;5075825;28;20449;-81
2023/01/26 07:06:44;;;;;;;27.57;13.70;;;0.30;93.80;;;-0.17;85.09;98313.81;5076071;28;20475;-80
2023/01/26 07:09:12;;;;;;;25.30;14.07;;;0.40;93.40;;;-0.35;84.92;98319.00;5071990;28;20513;-77
2023/01/26 07:11:40;;;;;;;28.03;14.60;;;0.30;92.30;;;-0.16;85.33;98317.31;5075043;28;20456;-79
2023/01/26 07:14:07;;;;;;;23.50;12.43;;;0.30;93.30;;;-0.19;84.91;98322.91;5078417;28;20472;-75
2023/01/26 07:16:35;;;;;;;23.47;12.43;;;0.30;93.20;;;-0.19;84.80;98309.63;5080588;28;20458;-75
2023/01/26 07:19:03;;;;;;;21.20;12.10;;;0.30;93.00;;;0.09;85.85;98320.41;5084846;28;20470;-73
2023/01/26 07:21:30;;;;;;;22.63;11.57;;;0.50;94.50;;;0.15;83.98;98314.50;5082251;28;20455;-74
2023/01/26 07:23:58;;;;;;;26.83;13.80;;;0.60;92.90;;;0.07;84.09;98312.56;5076235;28;20620;-73
2023/01/26 07:26:25;;;;;;;26.50;13.80;;;0.60;92.30;;;0.03;84.57;98295.22;5082145;28;20464;-73
2023/01/26 07:28:52;;;;;;;24.00;13.50;;;0.60;92.90;;;0.30;83.98;98312.22;5079068;28;20551;-75
2023/01/26 07:31:20;;;;;;;24.00;12.63;;;0.70;92.40;;;0.11;83.43;98319.25;5080289;28;20488;-75
2023/01/26 07:33:47;;;;;;;20.50;12.67;;;0.70;91.20;;;0.10;83.37;98327.41;5076500;28;20846;-75
2023/01/26 07:36:15;;;;;;;19.47;11.80;;;0.60;90.80;;;0.11;83.05;98315.78;5069916;28;20968;-76
2023/01/26 07:38:42;;;;;;;22.10;12.60;;;0.60;90.80;;;-0.17;83.11;98320.97;5077421;28;20494;-74
2023/01/26 07:41:12;;;;;;;24.00;11.90;;;0.40;90.50;;;-0.14;83.51;98310.03;5081123;28;21017;-74
2023/01/26 07:43:40;;;;;;;22.97;11.90;;;0.40;91.10;;;0.12;83.28;98309.47;5081160;28;20504;-73
2023/01/26 07:46:09;;;;;;;20.50;11.80;;;0.60;91.20;;;-0.05;83.79;98314.53;5070858;28;20491;-74
2023/01/26 07:48:37;;;;;;;19.43;11.33;;;0.50;90.90;;;-0.19;84.08;98312.28;5077816;28;20851;-75
2023/01/26 07:51:07;;;;;;;17.70;10.27;;;0.40;91.00;;;-0.30;83.66;98306.13;5084431;28;20455;-74
2023/01/26 07:53:38;;;;;;;18.77;10.77;;;0.30;90.90;;;-0.21;83.72;98299.13;5079937;28;20482;-73
2023/01/26 07:56:08;;;;;;;21.37;12.20;;;0.30;91.10;;;-0.47;84.82;98304.16;5076982;28;20945;-74
2023/01/26 07:58:35;;;;;;;20.40;10.90;;;0.30;91.50;;;-0.37;84.79;98309.47;5098200;28;20562;-75
2023/01/26 08:01:11;;;;;;;19.40;11.13;;;0.20;91.80;;;-0.27;84.91;98310.34;5075059;28;20452;-76
2023/01/26 08:03:38;;;;;;;21.10;11.50;;;0.20;92.10;;;-0.35;84.86;98294.25;5078239;28;20553;-73
2023/01/26 08:06:07;;;;;;;19.57;10.60;;;0.30;92.30;;;-0.34;85.09;98307.41;5078591;28;20453;-75
2023/01/26 08:08:36;;;;;;;18.70;10.17;;;0.20;92.40;;;-0.27;84.79;98306.81;5085423;28;20943;-73
2023/01/26 08:11:03;;;;;;;26.00;12.40;;;0.30;92.40;;;-0.27;85.27;98305.03;5078628;28;20490;-75
2023/01/26 08:13:31;;;;;;;26.03;10.90;;;0.30;93.10;;;-0.30;85.09;98311.44;5078294;28;20473;-74
2023/01/26 08:16:03;;;;;;;21.30;10.23;;;0.30;92.90;;;-0.38;84.93;98310.47;5085845;28;20452;-71
2023/01/26 08:18:30;;;;;;;23.83;12.60;;;0.20;92.50;;;-0.31;84.78;98309.75;5101630;28;20450;-70
2023/01/26 08:20:59;;;;;;;18.40;11.43;;;0.30;92.70;;;-0.29;84.97;98317.59;5101143;28;20518;-72
2023/01/26 08:23:27;;;;;;;22.43;11.70;;;0.30;92.40;;;-0.36;84.79;98312.00;5102362;28;20510;-71
2023/01/26 08:26:00;;;;;;;22.33;10.93;;;0.20;91.90;;;-0.35;84.51;98308.38;5106496;28;20540;-74
2023/01/26 08:28:27;;;;;;;20.40;9.87;;;0.20;91.70;;;-0.31;84.15;98309.75;5082434;28;20447;-74
2023/01/26 08:30:55;;;;;;;19.27;10.93;;;0.30;91.80;;;-0.21;84.07;98301.78;5078698;28;20969;-73
2023/01/26 08:33:22;;;;;;;19.80;10.80;;;0.30;91.80;;;-0.01;82.93;98305.28;5083995;28;20568;-78
2023/01/26 08:35:50;;;;;;;16.30;10.00;;;0.40;91.50;;;-0.05;83.61;98303.91;5083451;28;20455;-77
2023/01/26 08:38:17;;;;;;;18.67;10.50;;;0.40;90.90;;;0.09;82.33;98305.28;5073262;28;20460;-77
2023/01/26 08:40:44;;;;;;;17.50;9.20;;;0.60;90.20;;;0.09;82.12;98293.84;5083244;28;20449;-80
2023/01/26 08:43:12;;;;;;;20.07;10.50;;;0.60;89.80;;;0.31;81.26;98298.00;5080864;28;20528;-75
2023/01/26 08:45:40;;;;;;;18.70;10.90;;;0.70;89.50;;;0.28;81.63;98307.09;5076003;28;21148;-77
2023/01/26 08:48:07;;;;;;;19.50;10.60;;;0.80;88.30;;;0.23;80.90;98312.00;5084840;28;20446;-81
2023/01/26 08:50:34;;;;;;;18.10;11.00;;;0.80;87.40;;;-0.34;81.59;98245.47;5086066;28;20447;-81
2023/01/26 08:53:01;;;;;;;17.43;9.73;;;0.70;87.00;;;-0.06;81.41;98273.00;5083710;28;20515;-78
2023/01/26 08:55:28;;;;;;;17.23;9.80;;;0.70;88.10;;;0.28;80.63;98312.41;5084394;28;20471;-80
2023/01/26 08:57:56;;;;;;;15.33;9.03;;;0.70;87.30;;;0.23;80.40;98311.13;5088661;28;20509;-79
2023/01/26 09:00:25;;;;;;;16.77;10.40;;;0.70;86.70;;;0.15;80.49;98309.19;5085196;28;21002;-79
2023/01/26 09:02:59;;;;;;;19.70;10.20;;;0.70;86.20;;;0.15;80.83;98303.88;5075492;28;20521;-76
2023/01/26 09:05:27;;;;;;;17.07;9.97;;;0.70;86.90;;;0.12;80.93;98307.66;5080246;28;20832;-78
2023/01/26 09:07:54;;;;;;;17.73;10.00;;;0.70;87.00;;;0.05;80.64;98295.91;5078988;28;21253;-78
2023/01/26 09:10:21;;;;;;;17.73;9.10;;;0.60;86.40;;;-0.01;81.06;98286.69;5083882;28;20451;-79
2023/01/26 09:12:49;;;;;;;15.60;8.07;;;0.70;87.30;;;0.01;81.33;98306.97;5082696;28;20471;-76
2023/01/26 09:15:16;;;;;;;17.90;10.60;;;0.60;87.00;;;-0.01;81.96;98310.59;5073749;28;20454;-80
2023/01/26 09:17:48;;;;;;;15.87;8.33;;;0.60;87.80;;;0.15;81.43;98306.53;5089213;28;20732;-79
2023/01/26 09:20:15;;;;;;;14.77;9.30;;;0.60;88.90;;;0.12;81.00;98293.53;5075734;28;20537;-76
2023/01/26 09:22:43;;;;;;;18.57;10.40;;;0.70;87.00;;;-0.13;82.52;98306.41;5087123;28;20661;-82
2023/01/26 09:25:11;;;;;;;14.27;8.07;;;0.60;88.70;;;0.15;81.30;98311.84;5087995;28;20868;-80
2023/01/26 09:27:38;;;;;;;14.27;8.83;;;0.70;88.70;;;0.22;81.34;98315.59;5088702;28;20436;-78
2023/01/26 09:30:08;;;;;;;13.33;8.40;;;0.70;88.70;;;0.21;81.16;98329.88;5087842;28;20452;-79
2023/01/26 09:32:35;;;;;;;16.23;9.33;;;0.70;87.60;;;0.02;81.75;98322.78;5091072;28;20451;-78
2023/01/26 09:35:05;;;;;;;14.80;8.70;;;0.60;87.30;;;0.10;81.34;98316.75;5098651;28;20520;-78
2023/01/26 09:37:32;;;;;;;15.87;9.37;;;0.70;88.30;;;0.18;81.37;98319.53;5083318;28;20457;-77
2023/01/26 09:39:59;;;;;;;17.33;8.60;;;0.70;88.10;;;0.15;80.56;98325.13;5079716;28;20461;-78
2023/01/26 09:42:40;;;;;;;16.37;9.87;;;0.70;86.60;;;0.10;81.53;98322.06;5078720;28;20491;-79
2023/01/26 09:45:23;;;;;;;13.30;7.60;;;0.70;88.20;;;0.12;80.58;98326.25;5083285;28;20486;-78
2023/01/26 09:48:15;;;;;;;13.80;8.57;;;0.70;86.90;;;0.10;81.43;98324.75;5072771;28;20499;-80
2023/01/26 09:50:49;;;;;;;21.13;9.63;;;0.60;87.60;;;0.18;80.81;98321.38;5072689;28;20495;-78
2023/01/26 09:53:22;;;;;;;17.93;9.60;;;0.70;87.30;;;-0.09;81.79;98321.09;5082098;28;20525;-77
2023/01/26 09:55:51;;;;;;;17.20;9.90;;;0.60;87.20;;;-0.01;81.47;98323.88;5084078;28;20450;-77
2023/01/26 09:58:28;;;;;;;16.20;8.50;;;0.60;87.70;;;0.09;80.71;98315.09;5078850;28;20452;-79
2023/01/26 10:01:01;;;;;;;16.50;8.50;;;0.70;87.20;;;0.18;80.65;98319.53;5084378;28;20845;-79
2023/01/26 10:03:39;;;;;;;17.03;9.47;;;0.70;87.00;;;0.11;80.66;98319.25;5083641;28;20946;-78
2023/01/26 10:06:21;;;;;;;17.30;9.60;;;0.70;86.40;;;0.17;80.39;98314.38;5080300;28;20557;-76
2023/01/26 10:08:49;;;;;;;15.63;8.47;;;0.70;86.30;;;0.24;81.11;98313.66;5075332;28;20443;-77
2023/01/26 10:11:24;;;;;;;17.13;8.97;;;0.80;87.40;;;0.26;79.67;98309.03;5085941;28;20446;-76
2023/01/26 10:13:57;;;;;;;15.80;8.10;;;0.80;84.80;;;0.22;79.02;98320.91;5088801;28;20475;-73
2023/01/26 10:16:25;;;;;;;15.97;7.93;;;0.80;83.80;;;0.07;79.60;98312.56;5090442;28;20787;-77
2023/01/26 10:18:59;;;;;;;15.13;8.83;;;0.70;84.00;;;0.05;80.03;98313.66;5084982;28;20467;-75
2023/01/26 10:21:33;;;;;;;19.37;9.97;;;0.70;84.80;;;-0.06;80.41;98312.84;5079576;28;20466;-75
2023/01/26 10:24:04;;;;;;;15.30;8.67;;;0.60;85.30;;;0.08;80.89;98308.91;5068700;28;20898;-71
2023/01/26 10:26:33;;;;;;;13.83;8.90;;;0.60;86.30;;;-0.01;80.06;98293.81;5070163;28;20802;-77
2023/01/26 10:29:01;;;;;;;16.90;9.57;;;0.60;86.00;;;0.07;80.60;98311.72;5099296;28;20458;-75
2023/01/26 10:31:32;;;;;;;18.00;9.80;;;0.70;87.00;;;0.06;80.43;98310.03;5086269;28;20462;-74
2023/01/26 10:34:13;;;;;;;18.03;8.80;;;0.60;86.20;;;-0.07;80.28;98311.19;5082380;28;20517;-75
2023/01/26 10:36:44;;;;;;;17.73;10.27;;;0.60;85.30;;;-0.16;80.86;98314.66;5080344;28;20455;-73
2023/01/26 10:39:16;;;;;;;16.90;9.53;;;0.50;86.40;;;-0.06;81.19;98312.00;5084119;28;20536;-74
2023/01/26 10:41:58;;;;;;;19.50;10.10;;;0.50;87.20;;;-0.15;80.83;98305.72;5074078;28;20448;-77
2023/01/26 10:44:33;;;;;;;18.47;9.63;;;0.40;86.70;;;-0.38;81.42;98286.56;5087647;28;20459;-76
2023/01/26 10:47:07;;;;;;;18.70;11.50;;;0.40;86.50;;;-0.06;81.27;98304.03;5079150;28;20551;-75
2023/01/26 10:49:34;;;;;;;18.50;10.03;;;0.40;87.40;;;-0.03;80.47;98286.00;5078236;28;21006;-75
2023/01/26 10:52:20;;;;;;;15.83;8.90;;;0.50;87.40;;;0.05;79.99;98303.03;5102968;28;20455;-74
2023/01/26 10:54:49;;;;;;;18.00;9.70;;;0.50;86.10;;;0.02;79.22;98272.31;5086534;28;20479;-75
2023/01/26 10:57:27;;;;;;;18.70;10.97;;;0.60;85.50;;;0.12;79.62;98288.22;5088724;28;20447;-75
2023/01/26 10:59:57;;;;;;;21.60;11.77;;;0.60;85.60;;;0.05;80.03;98292.41;5075356;28;20483;-75
2023/01/26 11:02:27;;;;;;;21.30;12.00;;;0.60;85.90;;;-0.20;80.76;98282.22;5074038;28;20431;-75
2023/01/26 11:05:20;;;;;;;22.30;12.00;;;0.50;85.40;;;-0.36;81.38;98273.97;5075520;28;21135;-75
2023/01/26 11:07:50;;;;;;;20.27;11.07;;;0.40;87.40;;;-0.25;82.01;98287.13;5077263;28;20468;-77
2023/01/26 11:10:22;;;;;;;18.87;10.43;;;0.40;88.00;;;-0.28;81.53;98282.09;5084016;28;20463;-77
2023/01/26 11:12:51;;;;;;;18.03;9.37;;;0.40;87.00;;;-0.26;81.62;98285.44;5095852;28;20457;-75
2023/01/26 11:15:21;;;;;;;19.00;10.80;;;0.30;88.50;;;-0.27;80.58;98280.28;5096629;28;20470;-73
2023/01/26 11:17:56;;;;;;;21.40;11.40;;;0.40;86.30;;;-0.09;81.10;98280.41;5107691;28;20444;-75